The Lakes, Nevada
Current Conditions -  °F | °C
As of 4:53 AM on Saturday 25 Oct 2014 (Local Time) from KVGT Reporting Station
Clear Clear  
Wind Chill: 17°   Ceiling: Unl
Heat Index: 17°   Visibility: 10mi
Dew Point:   Wind: 5mph
Humidity: 41%   Direction: 310°NW
Pressure: 30.01"   Gusts: NA
Location:  36.14°N, 115.29°W
Report Text: KVGT 251153Z 31004KT 10SM CLR 17/03 A3001 RMK AO2 SLP161 T01670033 10206 20167 55005
Loading
Personal Weather Stations






























Interactive Weather Map
Tropical Storm Tracking
New forecast layout! Learn more

10-Day Weather Forecast

Advertisements
Track Severe Weather on mobile